sensor_id;sensor_type;location;lat;lon;timestamp;P1;durP1;ratioP1;P2;durP2;ratioP2
15404;SDS011;7801;48.124;11.590;2023-02-28T00:01:25;1.50;;;0.52;;
15404;SDS011;7801;48.124;11.590;2023-02-28T00:03:51;0.40;;;0.40;;
15404;SDS011;7801;48.124;11.590;2023-02-28T00:06:16;2.23;;;0.67;;
15404;SDS011;7801;48.124;11.590;2023-02-28T00:08:43;0.93;;;0.93;;
15404;SDS011;7801;48.124;11.590;2023-02-28T00:11:09;0.93;;;0.93;;
15404;SDS011;7801;48.124;11.590;2023-02-28T00:13:40;1.37;;;0.82;;
15404;SDS011;7801;48.124;11.590;2023-02-28T00:16:13;0.62;;;0.62;;
15404;SDS011;7801;48.124;11.590;2023-02-28T00:18:41;0.62;;;0.62;;
15404;SDS011;7801;48.124;11.590;2023-02-28T00:21:10;0.32;;;0.32;;
15404;SDS011;7801;48.124;11.590;2023-02-28T00:23:37;0.75;;;0.75;;
15404;SDS011;7801;48.124;11.590;2023-02-28T00:26:07;0.52;;;0.52;;
15404;SDS011;7801;48.124;11.590;2023-02-28T00:28:32;0.40;;;0.40;;
15404;SDS011;7801;48.124;11.590;2023-02-28T00:31:00;0.30;;;0.30;;
15404;SDS011;7801;48.124;11.590;2023-02-28T00:33:26;1.12;;;0.95;;
15404;SDS011;7801;48.124;11.590;2023-02-28T00:36:00;0.35;;;0.35;;
15404;SDS011;7801;48.124;11.590;2023-02-28T00:38:30;1.02;;;1.02;;
15404;SDS011;7801;48.124;11.590;2023-02-28T00:40:58;0.87;;;0.87;;
15404;SDS011;7801;48.124;11.590;2023-02-28T00:43:31;0.28;;;0.28;;
15404;SDS011;7801;48.124;11.590;2023-02-28T00:45:58;0.40;;;0.40;;
15404;SDS011;7801;48.124;11.590;2023-02-28T00:48:24;0.10;;;0.10;;
15404;SDS011;7801;48.124;11.590;2023-02-28T00:50:50;0.55;;;0.50;;
15404;SDS011;7801;48.124;11.590;2023-02-28T00:53:16;0.53;;;0.53;;
15404;SDS011;7801;48.124;11.590;2023-02-28T00:55:44;0.20;;;0.20;;
15404;SDS011;7801;48.124;11.590;2023-02-28T00:58:12;0.28;;;0.25;;
15404;SDS011;7801;48.124;11.590;2023-02-28T01:00:39;0.30;;;0.30;;
15404;SDS011;7801;48.124;11.590;2023-02-28T01:03:05;1.67;;;1.67;;
15404;SDS011;7801;48.124;11.590;2023-02-28T01:05:30;0.53;;;0.53;;
15404;SDS011;7801;48.124;11.590;2023-02-28T01:07:57;0.95;;;0.57;;
15404;SDS011;7801;48.124;11.590;2023-02-28T01:10:25;0.60;;;0.60;;
15404;SDS011;7801;48.124;11.590;2023-02-28T01:12:52;0.30;;;0.30;;
15404;SDS011;7801;48.124;11.590;2023-02-28T01:15:17;0.60;;;0.60;;
15404;SDS011;7801;48.124;11.590;2023-02-28T01:17:43;0.47;;;0.47;;
15404;SDS011;7801;48.124;11.590;2023-02-28T01:20:11;0.95;;;0.85;;
15404;SDS011;7801;48.124;11.590;2023-02-28T01:22:39;0.65;;;0.65;;
15404;SDS011;7801;48.124;11.590;2023-02-28T01:25:06;0.95;;;0.95;;
15404;SDS011;7801;48.124;11.590;2023-02-28T01:27:33;0.77;;;0.77;;
15404;SDS011;7801;48.124;11.590;2023-02-28T01:29:59;0.30;;;0.30;;
15404;SDS011;7801;48.124;11.590;2023-02-28T01:32:26;0.30;;;0.30;;
15404;SDS011;7801;48.124;11.590;2023-02-28T01:34:55;0.90;;;0.90;;
15404;SDS011;7801;48.124;11.590;2023-02-28T01:37:22;1.08;;;0.68;;
15404;SDS011;7801;48.124;11.590;2023-02-28T01:39:48;0.73;;;0.73;;
15404;SDS011;7801;48.124;11.590;2023-02-28T01:42:13;0.77;;;0.63;;
15404;SDS011;7801;48.124;11.590;2023-02-28T01:47:34;0.25;;;0.25;;
15404;SDS011;7801;48.124;11.590;2023-02-28T01:50:04;0.43;;;0.43;;
15404;SDS011;7801;48.124;11.590;2023-02-28T01:52:32;1.48;;;1.23;;
15404;SDS011;7801;48.124;11.590;2023-02-28T01:54:59;0.45;;;0.45;;
15404;SDS011;7801;48.124;11.590;2023-02-28T01:57:37;1.05;;;1.05;;
15404;SDS011;7801;48.124;11.590;2023-02-28T02:00:09;0.50;;;0.50;;
15404;SDS011;7801;48.124;11.590;2023-02-28T02:02:44;0.30;;;0.30;;
15404;SDS011;7801;48.124;11.590;2023-02-28T02:05:16;0.45;;;0.45;;
15404;SDS011;7801;48.124;11.590;2023-02-28T02:07:45;0.30;;;0.30;;
15404;SDS011;7801;48.124;11.590;2023-02-28T02:10:15;0.47;;;0.47;;
15404;SDS011;7801;48.124;11.590;2023-02-28T02:15:40;7.47;;;0.60;;
15404;SDS011;7801;48.124;11.590;2023-02-28T02:18:15;0.50;;;0.50;;
15404;SDS011;7801;48.124;11.590;2023-02-28T02:29:02;1.20;;;0.43;;
15404;SDS011;7801;48.124;11.590;2023-02-28T02:31:41;0.10;;;0.10;;
15404;SDS011;7801;48.124;11.590;2023-02-28T02:37:09;0.20;;;0.20;;
15404;SDS011;7801;48.124;11.590;2023-02-28T02:39:59;0.50;;;0.50;;
15404;SDS011;7801;48.124;11.590;2023-02-28T02:42:34;1.23;;;0.43;;
15404;SDS011;7801;48.124;11.590;2023-02-28T02:45:16;0.75;;;0.75;;
15404;SDS011;7801;48.124;11.590;2023-02-28T02:47:46;0.77;;;0.77;;
15404;SDS011;7801;48.124;11.590;2023-02-28T02:50:15;0.50;;;0.45;;
15404;SDS011;7801;48.124;11.590;2023-02-28T02:52:48;0.80;;;0.80;;
15404;SDS011;7801;48.124;11.590;2023-02-28T02:55:17;0.40;;;0.40;;
15404;SDS011;7801;48.124;11.590;2023-02-28T02:57:49;0.17;;;0.17;;
15404;SDS011;7801;48.124;11.590;2023-02-28T03:00:27;0.45;;;0.45;;
15404;SDS011;7801;48.124;11.590;2023-02-28T03:02:58;0.98;;;0.73;;
15404;SDS011;7801;48.124;11.590;2023-02-28T03:05:26;0.70;;;0.70;;
15404;SDS011;7801;48.124;11.590;2023-02-28T03:07:59;0.80;;;0.80;;
15404;SDS011;7801;48.124;11.590;2023-02-28T03:12:54;0.20;;;0.20;;
15404;SDS011;7801;48.124;11.590;2023-02-28T03:15:34;0.13;;;0.13;;
15404;SDS011;7801;48.124;11.590;2023-02-28T03:18:19;0.47;;;0.20;;
15404;SDS011;7801;48.124;11.590;2023-02-28T03:21:13;0.55;;;0.55;;
15404;SDS011;7801;48.124;11.590;2023-02-28T03:24:03;0.62;;;0.62;;
15404;SDS011;7801;48.124;11.590;2023-02-28T03:26:29;0.55;;;0.50;;
15404;SDS011;7801;48.124;11.590;2023-02-28T03:29:02;0.30;;;0.30;;
15404;SDS011;7801;48.124;11.590;2023-02-28T03:34:03;1.55;;;0.35;;
15404;SDS011;7801;48.124;11.590;2023-02-28T03:36:34;0.68;;;0.65;;
15404;SDS011;7801;48.124;11.590;2023-02-28T03:39:08;0.10;;;0.10;;
15404;SDS011;7801;48.124;11.590;2023-02-28T03:41:49;1.05;;;1.05;;
15404;SDS011;7801;48.124;11.590;2023-02-28T03:44:24;1.02;;;0.68;;
15404;SDS011;7801;48.124;11.590;2023-02-28T03:46:58;0.73;;;0.73;;
15404;SDS011;7801;48.124;11.590;2023-02-28T03:49:30;0.62;;;0.32;;
15404;SDS011;7801;48.124;11.590;2023-02-28T03:51:59;0.25;;;0.25;;
15404;SDS011;7801;48.124;11.590;2023-02-28T03:54:30;0.50;;;0.50;;
15404;SDS011;7801;48.124;11.590;2023-02-28T03:57:11;1.37;;;1.02;;
15404;SDS011;7801;48.124;11.590;2023-02-28T03:59:44;1.37;;;0.82;;
15404;SDS011;7801;48.124;11.590;2023-02-28T04:02:13;0.62;;;0.62;;
15404;SDS011;7801;48.124;11.590;2023-02-28T04:04:40;0.57;;;0.57;;
15404;SDS011;7801;48.124;11.590;2023-02-28T04:07:10;0.37;;;0.37;;
15404;SDS011;7801;48.124;11.590;2023-02-28T04:09:36;0.40;;;0.40;;
15404;SDS011;7801;48.124;11.590;2023-02-28T04:12:01;0.20;;;0.20;;
15404;SDS011;7801;48.124;11.590;2023-02-28T04:14:27;0.60;;;0.60;;
15404;SDS011;7801;48.124;11.590;2023-02-28T04:16:52;2.00;;;0.63;;
15404;SDS011;7801;48.124;11.590;2023-02-28T04:19:18;0.23;;;0.23;;
15404;SDS011;7801;48.124;11.590;2023-02-28T04:21:44;0.40;;;0.20;;
15404;SDS011;7801;48.124;11.590;2023-02-28T04:24:13;0.73;;;0.73;;
15404;SDS011;7801;48.124;11.590;2023-02-28T04:26:41;1.40;;;1.40;;
15404;SDS011;7801;48.124;11.590;2023-02-28T04:29:09;0.30;;;0.30;;
15404;SDS011;7801;48.124;11.590;2023-02-28T04:31:35;1.23;;;1.23;;
15404;SDS011;7801;48.124;11.590;2023-02-28T04:34:01;0.90;;;0.90;;
15404;SDS011;7801;48.124;11.590;2023-02-28T04:36:26;3.50;;;1.47;;
15404;SDS011;7801;48.124;11.590;2023-02-28T04:38:52;1.30;;;1.20;;
15404;SDS011;7801;48.124;11.590;2023-02-28T04:41:18;1.07;;;1.07;;
15404;SDS011;7801;48.124;11.590;2023-02-28T04:43:43;0.77;;;0.77;;
15404;SDS011;7801;48.124;11.590;2023-02-28T04:46:08;0.40;;;0.40;;
15404;SDS011;7801;48.124;11.590;2023-02-28T04:48:37;1.23;;;1.23;;
15404;SDS011;7801;48.124;11.590;2023-02-28T04:51:04;1.00;;;0.90;;
15404;SDS011;7801;48.124;11.590;2023-02-28T04:53:31;1.58;;;1.48;;
15404;SDS011;7801;48.124;11.590;2023-02-28T04:55:57;0.37;;;0.37;;
15404;SDS011;7801;48.124;11.590;2023-02-28T04:58:23;1.67;;;1.57;;
15404;SDS011;7801;48.124;11.590;2023-02-28T05:00:49;0.93;;;0.80;;
15404;SDS011;7801;48.124;11.590;2023-02-28T05:03:15;1.17;;;1.17;;
15404;SDS011;7801;48.124;11.590;2023-02-28T05:05:40;0.63;;;0.63;;
15404;SDS011;7801;48.124;11.590;2023-02-28T05:08:06;1.67;;;1.17;;
15404;SDS011;7801;48.124;11.590;2023-02-28T05:10:32;0.20;;;0.20;;
15404;SDS011;7801;48.124;11.590;2023-02-28T05:12:58;1.85;;;1.75;;
15404;SDS011;7801;48.124;11.590;2023-02-28T05:15:23;1.93;;;1.83;;
15404;SDS011;7801;48.124;11.590;2023-02-28T05:17:49;1.70;;;1.60;;
15404;SDS011;7801;48.124;11.590;2023-02-28T05:20:14;1.43;;;1.43;;
15404;SDS011;7801;48.124;11.590;2023-02-28T05:22:40;1.47;;;1.37;;
15404;SDS011;7801;48.124;11.590;2023-02-28T05:25:06;0.30;;;0.30;;
15404;SDS011;7801;48.124;11.590;2023-02-28T05:27:33;3.05;;;1.75;;
15404;SDS011;7801;48.124;11.590;2023-02-28T05:29:59;0.73;;;0.73;;
15404;SDS011;7801;48.124;11.590;2023-02-28T05:32:24;0.40;;;0.40;;
15404;SDS011;7801;48.124;11.590;2023-02-28T05:34:50;0.97;;;0.97;;
15404;SDS011;7801;48.124;11.590;2023-02-28T05:37:15;1.23;;;1.23;;
15404;SDS011;7801;48.124;11.590;2023-02-28T05:39:41;1.33;;;1.33;;
15404;SDS011;7801;48.124;11.590;2023-02-28T05:42:08;1.60;;;0.80;;
15404;SDS011;7801;48.124;11.590;2023-02-28T05:44:38;0.82;;;0.82;;
15404;SDS011;7801;48.124;11.590;2023-02-28T05:47:03;0.67;;;0.67;;
15404;SDS011;7801;48.124;11.590;2023-02-28T05:49:29;1.23;;;1.23;;
15404;SDS011;7801;48.124;11.590;2023-02-28T05:51:54;0.87;;;0.87;;
15404;SDS011;7801;48.124;11.590;2023-02-28T05:54:19;0.53;;;0.53;;
15404;SDS011;7801;48.124;11.590;2023-02-28T05:56:44;2.83;;;2.60;;
15404;SDS011;7801;48.124;11.590;2023-02-28T05:59:11;1.23;;;1.17;;
15404;SDS011;7801;48.124;11.590;2023-02-28T06:01:42;4.15;;;1.75;;
15404;SDS011;7801;48.124;11.590;2023-02-28T06:04:16;2.35;;;2.15;;
15404;SDS011;7801;48.124;11.590;2023-02-28T06:06:47;1.27;;;1.27;;
15404;SDS011;7801;48.124;11.590;2023-02-28T06:09:13;2.85;;;1.85;;
15404;SDS011;7801;48.124;11.590;2023-02-28T06:11:39;1.27;;;1.27;;
15404;SDS011;7801;48.124;11.590;2023-02-28T06:14:05;1.60;;;1.60;;
15404;SDS011;7801;48.124;11.590;2023-02-28T06:16:32;1.73;;;1.17;;
15404;SDS011;7801;48.124;11.590;2023-02-28T06:19:00;1.95;;;1.85;;
15404;SDS011;7801;48.124;11.590;2023-02-28T06:21:27;1.10;;;1.10;;
15404;SDS011;7801;48.124;11.590;2023-02-28T06:23:52;1.77;;;1.67;;
15404;SDS011;7801;48.124;11.590;2023-02-28T06:26:19;1.73;;;1.55;;
15404;SDS011;7801;48.124;11.590;2023-02-28T06:28:45;2.35;;;2.25;;
15404;SDS011;7801;48.124;11.590;2023-02-28T06:31:11;4.50;;;2.03;;
15404;SDS011;7801;48.124;11.590;2023-02-28T06:33:39;3.15;;;1.73;;
15404;SDS011;7801;48.124;11.590;2023-02-28T06:36:05;1.05;;;1.05;;
15404;SDS011;7801;48.124;11.590;2023-02-28T06:38:32;1.73;;;1.62;;
15404;SDS011;7801;48.124;11.590;2023-02-28T06:40:59;2.10;;;2.00;;
15404;SDS011;7801;48.124;11.590;2023-02-28T06:43:27;1.55;;;1.45;;
15404;SDS011;7801;48.124;11.590;2023-02-28T06:45:54;1.35;;;1.25;;
15404;SDS011;7801;48.124;11.590;2023-02-28T06:48:20;0.80;;;0.80;;
15404;SDS011;7801;48.124;11.590;2023-02-28T06:50:46;1.67;;;1.67;;
15404;SDS011;7801;48.124;11.590;2023-02-28T06:53:12;4.20;;;2.07;;
15404;SDS011;7801;48.124;11.590;2023-02-28T06:55:37;2.40;;;1.87;;
15404;SDS011;7801;48.124;11.590;2023-02-28T06:58:03;1.95;;;1.85;;
15404;SDS011;7801;48.124;11.590;2023-02-28T07:00:42;1.27;;;1.27;;
15404;SDS011;7801;48.124;11.590;2023-02-28T07:03:09;0.98;;;0.98;;
15404;SDS011;7801;48.124;11.590;2023-02-28T07:05:36;1.37;;;1.33;;
15404;SDS011;7801;48.124;11.590;2023-02-28T07:08:02;0.90;;;0.90;;
15404;SDS011;7801;48.124;11.590;2023-02-28T07:10:30;2.85;;;1.10;;
15404;SDS011;7801;48.124;11.590;2023-02-28T07:12:55;2.00;;;1.90;;
15404;SDS011;7801;48.124;11.590;2023-02-28T07:15:43;3.00;;;2.70;;
15404;SDS011;7801;48.124;11.590;2023-02-28T07:18:22;0.55;;;0.55;;
15404;SDS011;7801;48.124;11.590;2023-02-28T07:20:49;4.85;;;2.35;;
15404;SDS011;7801;48.124;11.590;2023-02-28T07:23:16;2.25;;;2.15;;
15404;SDS011;7801;48.124;11.590;2023-02-28T07:25:46;3.70;;;3.17;;
15404;SDS011;7801;48.124;11.590;2023-02-28T07:28:13;2.35;;;2.25;;
15404;SDS011;7801;48.124;11.590;2023-02-28T07:30:41;2.35;;;2.22;;
15404;SDS011;7801;48.124;11.590;2023-02-28T07:33:10;3.67;;;3.55;;
15404;SDS011;7801;48.124;11.590;2023-02-28T07:35:38;2.67;;;2.12;;
15404;SDS011;7801;48.124;11.590;2023-02-28T07:38:04;2.00;;;1.65;;
15404;SDS011;7801;48.124;11.590;2023-02-28T07:40:29;2.10;;;1.97;;
15404;SDS011;7801;48.124;11.590;2023-02-28T07:42:56;2.55;;;1.83;;
15404;SDS011;7801;48.124;11.590;2023-02-28T07:45:21;2.00;;;1.93;;
15404;SDS011;7801;48.124;11.590;2023-02-28T07:47:46;1.73;;;1.73;;
15404;SDS011;7801;48.124;11.590;2023-02-28T07:50:13;2.20;;;1.73;;
15404;SDS011;7801;48.124;11.590;2023-02-28T07:52:41;5.05;;;3.17;;
15404;SDS011;7801;48.124;11.590;2023-02-28T07:55:07;2.10;;;1.57;;
15404;SDS011;7801;48.124;11.590;2023-02-28T07:57:34;3.60;;;1.60;;
15404;SDS011;7801;48.124;11.590;2023-02-28T07:59:59;2.13;;;2.00;;
15404;SDS011;7801;48.124;11.590;2023-02-28T08:02:25;1.50;;;1.50;;
15404;SDS011;7801;48.124;11.590;2023-02-28T08:04:50;2.73;;;2.10;;
15404;SDS011;7801;48.124;11.590;2023-02-28T08:07:16;2.57;;;2.37;;
15404;SDS011;7801;48.124;11.590;2023-02-28T08:09:44;2.20;;;2.10;;
15404;SDS011;7801;48.124;11.590;2023-02-28T08:12:11;3.43;;;3.17;;
15404;SDS011;7801;48.124;11.590;2023-02-28T08:14:39;2.12;;;2.03;;
15404;SDS011;7801;48.124;11.590;2023-02-28T08:17:07;1.45;;;1.42;;
15404;SDS011;7801;48.124;11.590;2023-02-28T08:19:32;2.60;;;2.17;;
15404;SDS011;7801;48.124;11.590;2023-02-28T08:21:57;1.60;;;1.53;;
15404;SDS011;7801;48.124;11.590;2023-02-28T08:24:24;2.40;;;2.20;;
15404;SDS011;7801;48.124;11.590;2023-02-28T08:26:52;2.05;;;1.87;;
15404;SDS011;7801;48.124;11.590;2023-02-28T08:29:18;2.35;;;2.25;;
15404;SDS011;7801;48.124;11.590;2023-02-28T08:31:45;2.97;;;2.78;;
15404;SDS011;7801;48.124;11.590;2023-02-28T08:34:11;1.93;;;1.73;;
15404;SDS011;7801;48.124;11.590;2023-02-28T08:36:39;2.42;;;2.30;;
15404;SDS011;7801;48.124;11.590;2023-02-28T08:39:06;1.80;;;1.65;;
15404;SDS011;7801;48.124;11.590;2023-02-28T08:41:32;1.75;;;1.75;;
15404;SDS011;7801;48.124;11.590;2023-02-28T08:44:00;1.60;;;1.52;;
15404;SDS011;7801;48.124;11.590;2023-02-28T08:46:26;2.35;;;2.25;;
15404;SDS011;7801;48.124;11.590;2023-02-28T08:48:54;2.83;;;2.73;;
15404;SDS011;7801;48.124;11.590;2023-02-28T08:51:22;2.55;;;2.45;;
15404;SDS011;7801;48.124;11.590;2023-02-28T08:53:53;1.85;;;1.75;;
15404;SDS011;7801;48.124;11.590;2023-02-28T08:56:22;2.95;;;2.30;;
15404;SDS011;7801;48.124;11.590;2023-02-28T08:58:52;1.55;;;1.50;;
15404;SDS011;7801;48.124;11.590;2023-02-28T09:01:28;6.68;;;3.12;;
15404;SDS011;7801;48.124;11.590;2023-02-28T09:03:56;2.78;;;2.65;;
15404;SDS011;7801;48.124;11.590;2023-02-28T09:06:26;1.62;;;1.62;;
15404;SDS011;7801;48.124;11.590;2023-02-28T09:08:52;3.28;;;2.03;;
15404;SDS011;7801;48.124;11.590;2023-02-28T09:11:24;3.78;;;3.58;;
15404;SDS011;7801;48.124;11.590;2023-02-28T09:13:51;1.35;;;1.35;;
15404;SDS011;7801;48.124;11.590;2023-02-28T09:16:18;2.45;;;2.25;;
15404;SDS011;7801;48.124;11.590;2023-02-28T09:18:46;2.67;;;2.58;;
15404;SDS011;7801;48.124;11.590;2023-02-28T09:21:15;2.58;;;2.47;;
15404;SDS011;7801;48.124;11.590;2023-02-28T09:23:45;4.20;;;3.80;;
15404;SDS011;7801;48.124;11.590;2023-02-28T09:26:14;1.75;;;1.75;;
15404;SDS011;7801;48.124;11.590;2023-02-28T09:28:43;3.50;;;3.25;;
15404;SDS011;7801;48.124;11.590;2023-02-28T09:31:13;2.08;;;1.98;;
15404;SDS011;7801;48.124;11.590;2023-02-28T09:33:41;3.45;;;3.17;;
15404;SDS011;7801;48.124;11.590;2023-02-28T09:36:08;1.42;;;1.27;;
15404;SDS011;7801;48.124;11.590;2023-02-28T09:38:35;3.12;;;2.92;;
15404;SDS011;7801;48.124;11.590;2023-02-28T09:41:03;4.22;;;3.85;;
15404;SDS011;7801;48.124;11.590;2023-02-28T09:43:37;2.60;;;2.50;;
15404;SDS011;7801;48.124;11.590;2023-02-28T09:49:13;3.80;;;3.43;;
15404;SDS011;7801;48.124;11.590;2023-02-28T09:51:47;3.37;;;2.73;;
15404;SDS011;7801;48.124;11.590;2023-02-28T09:54:32;3.33;;;2.60;;
15404;SDS011;7801;48.124;11.590;2023-02-28T10:00:14;3.13;;;2.10;;
15404;SDS011;7801;48.124;11.590;2023-02-28T10:06:17;18.83;;;2.77;;
15404;SDS011;7801;48.124;11.590;2023-02-28T10:09:04;4.23;;;2.27;;
15404;SDS011;7801;48.124;11.590;2023-02-28T10:11:40;2.77;;;2.30;;
15404;SDS011;7801;48.124;11.590;2023-02-28T10:14:22;3.47;;;3.27;;
15404;SDS011;7801;48.124;11.590;2023-02-28T10:17:25;2.53;;;2.43;;
15404;SDS011;7801;48.124;11.590;2023-02-28T10:22:22;2.63;;;2.43;;
15404;SDS011;7801;48.124;11.590;2023-02-28T10:25:19;2.47;;;2.33;;
15404;SDS011;7801;48.124;11.590;2023-02-28T10:27:53;2.07;;;1.97;;
15404;SDS011;7801;48.124;11.590;2023-02-28T10:30:28;1.40;;;1.40;;
15404;SDS011;7801;48.124;11.590;2023-02-28T10:32:54;4.95;;;3.25;;
15404;SDS011;7801;48.124;11.590;2023-02-28T10:35:24;3.93;;;2.90;;
15404;SDS011;7801;48.124;11.590;2023-02-28T10:37:56;2.53;;;2.42;;
15404;SDS011;7801;48.124;11.590;2023-02-28T10:45:57;2.83;;;2.17;;
15404;SDS011;7801;48.124;11.590;2023-02-28T10:48:57;2.22;;;2.10;;
15404;SDS011;7801;48.124;11.590;2023-02-28T10:51:38;1.67;;;1.67;;
15404;SDS011;7801;48.124;11.590;2023-02-28T10:54:27;2.78;;;2.58;;
15404;SDS011;7801;48.124;11.590;2023-02-28T11:00:11;1.27;;;1.23;;
15404;SDS011;7801;48.124;11.590;2023-02-28T11:02:40;1.80;;;1.70;;
15404;SDS011;7801;48.124;11.590;2023-02-28T11:05:29;5.18;;;2.90;;
15404;SDS011;7801;48.124;11.590;2023-02-28T11:08:11;2.40;;;2.30;;
15404;SDS011;7801;48.124;11.590;2023-02-28T11:10:47;4.45;;;3.30;;
15404;SDS011;7801;48.124;11.590;2023-02-28T11:13:21;1.92;;;1.83;;
15404;SDS011;7801;48.124;11.590;2023-02-28T11:15:57;5.35;;;2.28;;
15404;SDS011;7801;48.124;11.590;2023-02-28T11:21:27;2.75;;;2.65;;
15404;SDS011;7801;48.124;11.590;2023-02-28T11:24:01;6.10;;;3.23;;
15404;SDS011;7801;48.124;11.590;2023-02-28T11:26:46;1.80;;;1.70;;
15404;SDS011;7801;48.124;11.590;2023-02-28T11:34:35;5.10;;;2.23;;
15404;SDS011;7801;48.124;11.590;2023-02-28T11:37:04;3.50;;;2.87;;
15404;SDS011;7801;48.124;11.590;2023-02-28T11:39:38;3.03;;;2.93;;
15404;SDS011;7801;48.124;11.590;2023-02-28T11:48:50;1.93;;;1.90;;
15404;SDS011;7801;48.124;11.590;2023-02-28T11:51:42;3.80;;;2.77;;
15404;SDS011;7801;48.124;11.590;2023-02-28T12:06:40;3.03;;;2.60;;
15404;SDS011;7801;48.124;11.590;2023-02-28T12:12:33;3.40;;;3.20;;
15404;SDS011;7801;48.124;11.590;2023-02-28T12:24:05;2.57;;;2.40;;
15404;SDS011;7801;48.124;11.590;2023-02-28T12:26:46;2.33;;;2.23;;
15404;SDS011;7801;48.124;11.590;2023-02-28T12:29:19;3.13;;;3.03;;
15404;SDS011;7801;48.124;11.590;2023-02-28T12:34:52;2.53;;;2.37;;
15404;SDS011;7801;48.124;11.590;2023-02-28T12:40:21;3.77;;;3.60;;
15404;SDS011;7801;48.124;11.590;2023-02-28T12:42:51;2.13;;;2.03;;
15404;SDS011;7801;48.124;11.590;2023-02-28T12:45:26;4.10;;;3.83;;
15404;SDS011;7801;48.124;11.590;2023-02-28T12:48:46;3.10;;;2.87;;
15404;SDS011;7801;48.124;11.590;2023-02-28T12:51:20;2.37;;;2.27;;
15404;SDS011;7801;48.124;11.590;2023-02-28T13:00:10;3.17;;;3.03;;
15404;SDS011;7801;48.124;11.590;2023-02-28T13:03:14;5.20;;;2.10;;
15404;SDS011;7801;48.124;11.590;2023-02-28T13:18:42;5.43;;;3.13;;
15404;SDS011;7801;48.124;11.590;2023-02-28T13:21:28;2.50;;;2.37;;
15404;SDS011;7801;48.124;11.590;2023-02-28T13:23:58;2.10;;;2.00;;
15404;SDS011;7801;48.124;11.590;2023-02-28T13:29:27;1.97;;;1.93;;
15404;SDS011;7801;48.124;11.590;2023-02-28T13:45:26;2.23;;;2.00;;
15404;SDS011;7801;48.124;11.590;2023-02-28T13:47:58;2.50;;;1.90;;
15404;SDS011;7801;48.124;11.590;2023-02-28T13:50:33;2.17;;;2.07;;
15404;SDS011;7801;48.124;11.590;2023-02-28T13:53:13;3.03;;;2.83;;
15404;SDS011;7801;48.124;11.590;2023-02-28T13:59:35;6.00;;;3.30;;
15404;SDS011;7801;48.124;11.590;2023-02-28T14:02:06;4.60;;;2.07;;
15404;SDS011;7801;48.124;11.590;2023-02-28T14:07:33;3.43;;;3.13;;
15404;SDS011;7801;48.124;11.590;2023-02-28T14:10:18;3.13;;;2.93;;
15404;SDS011;7801;48.124;11.590;2023-02-28T14:12:59;1.73;;;1.70;;
15404;SDS011;7801;48.124;11.590;2023-02-28T14:15:38;2.77;;;2.67;;
15404;SDS011;7801;48.124;11.590;2023-02-28T14:24:10;3.60;;;3.30;;
15404;SDS011;7801;48.124;11.590;2023-02-28T14:27:16;3.13;;;2.93;;
15404;SDS011;7801;48.124;11.590;2023-02-28T14:30:02;2.63;;;2.53;;
15404;SDS011;7801;48.124;11.590;2023-02-28T14:38:25;2.70;;;2.50;;
15404;SDS011;7801;48.124;11.590;2023-02-28T14:40:56;3.50;;;3.30;;
15404;SDS011;7801;48.124;11.590;2023-02-28T14:43:26;3.43;;;3.23;;
15404;SDS011;7801;48.124;11.590;2023-02-28T14:45:59;1.70;;;1.70;;
15404;SDS011;7801;48.124;11.590;2023-02-28T14:48:29;1.23;;;1.20;;
15404;SDS011;7801;48.124;11.590;2023-02-28T14:50:57;3.20;;;2.87;;
15404;SDS011;7801;48.124;11.590;2023-02-28T14:53:30;2.70;;;2.60;;
15404;SDS011;7801;48.124;11.590;2023-02-28T14:56:02;3.63;;;3.23;;
15404;SDS011;7801;48.124;11.590;2023-02-28T14:58:31;2.40;;;2.30;;
15404;SDS011;7801;48.124;11.590;2023-02-28T15:01:02;3.07;;;2.03;;
15404;SDS011;7801;48.124;11.590;2023-02-28T15:05:58;2.37;;;2.17;;
15404;SDS011;7801;48.124;11.590;2023-02-28T15:08:32;2.60;;;2.50;;
15404;SDS011;7801;48.124;11.590;2023-02-28T15:11:16;2.13;;;2.03;;
15404;SDS011;7801;48.124;11.590;2023-02-28T15:13:48;2.40;;;2.30;;
15404;SDS011;7801;48.124;11.590;2023-02-28T15:16:23;1.97;;;1.87;;
15404;SDS011;7801;48.124;11.590;2023-02-28T15:18:59;2.20;;;2.10;;
15404;SDS011;7801;48.124;11.590;2023-02-28T15:21:35;1.83;;;1.73;;
15404;SDS011;7801;48.124;11.590;2023-02-28T15:24:06;1.53;;;1.53;;
15404;SDS011;7801;48.124;11.590;2023-02-28T15:26:42;1.83;;;1.73;;
15404;SDS011;7801;48.124;11.590;2023-02-28T15:32:16;3.63;;;3.43;;
15404;SDS011;7801;48.124;11.590;2023-02-28T15:34:55;3.67;;;3.47;;
15404;SDS011;7801;48.124;11.590;2023-02-28T15:37:47;2.73;;;2.53;;
15404;SDS011;7801;48.124;11.590;2023-02-28T15:40:36;2.70;;;2.60;;
15404;SDS011;7801;48.124;11.590;2023-02-28T15:46:04;2.93;;;2.83;;
15404;SDS011;7801;48.124;11.590;2023-02-28T15:48:44;2.97;;;2.87;;
15404;SDS011;7801;48.124;11.590;2023-02-28T15:51:24;2.30;;;2.20;;
15404;SDS011;7801;48.124;11.590;2023-02-28T15:54:08;2.80;;;2.57;;
15404;SDS011;7801;48.124;11.590;2023-02-28T15:56:47;2.30;;;2.30;;
15404;SDS011;7801;48.124;11.590;2023-02-28T15:59:19;2.57;;;2.47;;
15404;SDS011;7801;48.124;11.590;2023-02-28T16:02:01;2.40;;;2.30;;
15404;SDS011;7801;48.124;11.590;2023-02-28T16:05:02;2.63;;;2.53;;
15404;SDS011;7801;48.124;11.590;2023-02-28T16:07:29;1.63;;;1.63;;
15404;SDS011;7801;48.124;11.590;2023-02-28T16:09:55;3.13;;;2.93;;
15404;SDS011;7801;48.124;11.590;2023-02-28T16:12:27;2.37;;;2.27;;
15404;SDS011;7801;48.124;11.590;2023-02-28T16:14:54;2.37;;;2.17;;
15404;SDS011;7801;48.124;11.590;2023-02-28T16:17:25;2.57;;;2.47;;
15404;SDS011;7801;48.124;11.590;2023-02-28T16:19:54;1.90;;;1.80;;
15404;SDS011;7801;48.124;11.590;2023-02-28T16:22:24;2.87;;;2.57;;
15404;SDS011;7801;48.124;11.590;2023-02-28T16:24:52;2.87;;;2.77;;
15404;SDS011;7801;48.124;11.590;2023-02-28T16:27:25;2.90;;;2.70;;
15404;SDS011;7801;48.124;11.590;2023-02-28T16:29:59;3.03;;;2.93;;
15404;SDS011;7801;48.124;11.590;2023-02-28T16:32:26;2.90;;;2.80;;
15404;SDS011;7801;48.124;11.590;2023-02-28T16:34:52;3.17;;;3.00;;
15404;SDS011;7801;48.124;11.590;2023-02-28T16:37:18;3.30;;;2.43;;
15404;SDS011;7801;48.124;11.590;2023-02-28T16:39:45;2.60;;;2.50;;
15404;SDS011;7801;48.124;11.590;2023-02-28T16:42:14;2.07;;;1.97;;
15404;SDS011;7801;48.124;11.590;2023-02-28T16:44:47;2.47;;;2.37;;
15404;SDS011;7801;48.124;11.590;2023-02-28T16:47:14;3.73;;;3.07;;
15404;SDS011;7801;48.124;11.590;2023-02-28T16:49:40;2.80;;;2.70;;
15404;SDS011;7801;48.124;11.590;2023-02-28T16:52:09;4.07;;;3.77;;
15404;SDS011;7801;48.124;11.590;2023-02-28T16:54:38;2.77;;;2.57;;
15404;SDS011;7801;48.124;11.590;2023-02-28T16:57:05;2.40;;;2.30;;
15404;SDS011;7801;48.124;11.590;2023-02-28T16:59:40;2.87;;;2.73;;
15404;SDS011;7801;48.124;11.590;2023-02-28T17:02:13;4.43;;;4.03;;
15404;SDS011;7801;48.124;11.590;2023-02-28T17:04:39;2.50;;;2.40;;
15404;SDS011;7801;48.124;11.590;2023-02-28T17:07:11;3.50;;;3.40;;
15404;SDS011;7801;48.124;11.590;2023-02-28T17:09:38;1.63;;;1.63;;
15404;SDS011;7801;48.124;11.590;2023-02-28T17:12:04;2.37;;;2.27;;
15404;SDS011;7801;48.124;11.590;2023-02-28T17:14:33;3.67;;;3.37;;
15404;SDS011;7801;48.124;11.590;2023-02-28T17:16:59;2.73;;;2.47;;
15404;SDS011;7801;48.124;11.590;2023-02-28T17:19:27;4.07;;;3.87;;
15404;SDS011;7801;48.124;11.590;2023-02-28T17:21:56;2.63;;;2.53;;
15404;SDS011;7801;48.124;11.590;2023-02-28T17:24:23;3.33;;;2.77;;
15404;SDS011;7801;48.124;11.590;2023-02-28T17:26:49;3.10;;;2.80;;
15404;SDS011;7801;48.124;11.590;2023-02-28T17:29:18;3.10;;;2.97;;
15404;SDS011;7801;48.124;11.590;2023-02-28T17:31:47;2.10;;;2.03;;
15404;SDS011;7801;48.124;11.590;2023-02-28T17:34:15;2.00;;;1.90;;
15404;SDS011;7801;48.124;11.590;2023-02-28T17:36:48;4.00;;;3.67;;
15404;SDS011;7801;48.124;11.590;2023-02-28T17:39:16;2.83;;;2.63;;
15404;SDS011;7801;48.124;11.590;2023-02-28T17:41:48;3.00;;;2.57;;